Columbia Falls, MT (59912)

11:33 AM MST on February 10, 2016 (GMT -0700)
Teakettle Mt. | | Change Station
CLOSE
Current Station
Personal Weather Station
Location: Columbia Falls, MT
Elevation: 3715 ft
Nearby Weather Stations
Active Advisory: Freezing Fog Advisory

Elev 3715 ft 48.44 °N, 114.11 °W | Updated 24 seconds ago

Fog
Fog
32.4 °F
Feels Like 32 °F
N
0.0
Wind Variable Wind from ENE
Gusts 1.0 mph

Today
High -- | Low -- °F
--% Chance of Precip.
Yesterday
High -- | Low -- °F
Precip. -- in
Pressure 30.10 in
Visibility 10.0 miles
Clouds Clear
Windchill 32 °F
Dew Point 31 °F
Humidity 96%
Rainfall 0.00 in
Snow Depth Not available.
7:52 AM 5:49 PM
Waxing Crescent, 6% visible
METAR KCTB 101756Z AUTO 01007KT 10SM CLR 09/M02 A3010 RMK AO2 SLP192 T00941022 10094 20028 51010 TSNO
Pressure 30.10 in
Visibility 10.0 miles
Clouds Clear
Windchill 32 °F
Dew Point 31 °F
Humidity 96%
Rainfall 0.00 in
Snow Depth Not available.
7:52 AM 5:49 PM
Waxing Crescent, 6% visible
METAR KCTB 101756Z AUTO 01007KT 10SM CLR 09/M02 A3010 RMK AO2 SLP192 T00941022 10094 20028 51010 TSNO

10-Day Weather Forecast

Almanac

Astronomy

Feb. 10, 2016 Rise Set
Actual Time
Civil Twilight
Nautical Twilight
Astronomical Twilight
Moon
Length of Visible Light
Length of Day
Tomorrow will be .
, % of the Moon is Illuminated

Today's Extremes

State Highs State Lows

Community

WunderPhotos

Upload Photos

1,891,914 photos uploaded!

WunderBlog® & News

Nearby

Air Quality

  Air Quality AQ Index Pollutant
Not available.

Snow Depth

Station Depth Elevation

Earthquake Activity

City Distance Mag. Time & Date
Minimum magnitude displayed is 2.5.

Coastal Water Temperatures

Place Temperature

Stations

Nearby Weather Stations

Station Location Temp. Windchill Dew Point Humidity Wind Precip. Elev Updated Type
                   

Watches & Warnings

Freezing Fog Advisory
Issued: 6:23 AM MST Feb. 10, 2016 – National Weather Service

... Freezing fog advisory in effect until noon MST today...

The National Weather Service in Missoula has issued a freezing
fog advisory... which is in effect until noon MST today.

* Impacts/timing: patchy dense fog will expand through this
morning mainly in the Flathead Valley and near Flathead Lake.

* Visibility: less than one quarter mile

* locations impacted include... Flathead Lake... Flathead Valley...
   Mission Valley... Polson

Precautionary/preparedness actions...

A freezing fog advisory means visibilities will frequently be
reduced to less than one quarter mile. If driving... slow down...
use your headlights... and leave plenty of distance ahead of you.
Also... be alert for frost on bridge decks causing slippery roads.